PHEPO LPPS-LPMA
Flight info
| Callsign | PHEPO |
|---|---|
| Flight time | 0h 25m |
| Altitude | 3000 |
| Route | FUN |
| Aircraft | P28A/L-VGDW/C |
Departure
| Time | 2026-05-04 00:18 |
|---|---|
| Airport | Porto Santo Airport (LPPS) |
Arrival
| Time | 2026-05-04 00:43 |
|---|---|
| Airport | Cristiano Ronaldo International Airport (LPMA) |
| Time | Latitude | Longitude | Altitude | Speed | Heading |
|---|---|---|---|---|---|
| 2026-05-03 23:56 | 33.07061 | -16.34623 | 285 ft | 0 kts | 109° |
| 2026-05-04 00:14 | 33.07044 | -16.34625 | 284 ft | 8 kts | 206° |
| 2026-05-04 00:15 | 33.06995 | -16.34682 | 282 ft | 12 kts | 246° |
| 2026-05-04 00:15 | 33.06964 | -16.34777 | 281 ft | 12 kts | 266° |
| 2026-05-04 00:15 | 33.06963 | -16.34856 | 281 ft | 0 kts | 266° |
| 2026-05-04 00:15 | 33.06962 | -16.34897 | 282 ft | 10 kts | 270° |
| 2026-05-04 00:16 | 33.06996 | -16.34963 | 284 ft | 12 kts | 343° |
| 2026-05-04 00:16 | 33.07094 | -16.34982 | 287 ft | 17 kts | 353° |
| 2026-05-04 00:16 | 33.07219 | -16.34990 | 292 ft | 17 kts | 356° |
| 2026-05-04 00:16 | 33.07287 | -16.34992 | 297 ft | 0 kts | 1° |
| 2026-05-04 00:17 | 33.07374 | -16.34995 | 297 ft | 36 kts | 359° |
| 2026-05-04 00:17 | 33.07779 | -16.35013 | 318 ft | 77 kts | 358° |
| 2026-05-04 00:18 | 33.08365 | -16.35027 | 470 ft | 86 kts | 354° |
| 2026-05-04 00:18 | 33.08838 | -16.35079 | 653 ft | 87 kts | 346° |
| 2026-05-04 00:18 | 33.09093 | -16.35576 | 910 ft | 79 kts | 255° |
| 2026-05-04 00:18 | 33.08965 | -16.36198 | 1151 ft | 74 kts | 251° |
| 2026-05-04 00:19 | 33.08822 | -16.36750 | 1391 ft | 68 kts | 244° |
| 2026-05-04 00:19 | 33.08639 | -16.37261 | 1573 ft | 69 kts | 245° |
| 2026-05-04 00:19 | 33.08540 | -16.37626 | 1687 ft | 70 kts | 254° |
| 2026-05-04 00:19 | 33.08433 | -16.38368 | 1951 ft | 67 kts | 255° |
| 2026-05-04 00:20 | 33.08332 | -16.38916 | 2125 ft | 69 kts | 257° |
| 2026-05-04 00:20 | 33.08235 | -16.39483 | 2301 ft | 70 kts | 254° |
| 2026-05-04 00:20 | 33.08167 | -16.39866 | 2422 ft | 72 kts | 257° |
| 2026-05-04 00:20 | 33.08003 | -16.40622 | 2666 ft | 72 kts | 253° |
| 2026-05-04 00:21 | 33.07905 | -16.40997 | 2809 ft | 69 kts | 254° |
| 2026-05-04 00:21 | 33.07786 | -16.41570 | 2958 ft | 74 kts | 252° |
| 2026-05-04 00:21 | 33.07648 | -16.42207 | 3036 ft | 90 kts | 252° |
| 2026-05-04 00:21 | 33.07476 | -16.42955 | 3043 ft | 95 kts | 253° |
| 2026-05-04 00:22 | 33.07322 | -16.43721 | 3060 ft | 94 kts | 256° |
| 2026-05-04 00:22 | 33.07150 | -16.44476 | 3056 ft | 94 kts | 252° |
| 2026-05-04 00:22 | 33.06949 | -16.45246 | 2994 ft | 99 kts | 256° |
| 2026-05-04 00:22 | 33.06788 | -16.46030 | 3001 ft | 96 kts | 255° |
| 2026-05-04 00:23 | 33.06606 | -16.46796 | 3005 ft | 96 kts | 253° |
| 2026-05-04 00:23 | 33.06444 | -16.47568 | 3027 ft | 96 kts | 256° |
| 2026-05-04 00:23 | 33.06278 | -16.48328 | 3031 ft | 97 kts | 254° |
| 2026-05-04 00:23 | 33.06107 | -16.49119 | 3029 ft | 99 kts | 256° |
| 2026-05-04 00:24 | 33.05889 | -16.49891 | 3016 ft | 100 kts | 235° |
| 2026-05-04 00:24 | 33.05324 | -16.50374 | 2998 ft | 102 kts | 206° |
| 2026-05-04 00:24 | 33.04682 | -16.50731 | 2999 ft | 103 kts | 206° |
| 2026-05-04 00:24 | 33.04039 | -16.51079 | 3010 ft | 104 kts | 205° |
| 2026-05-04 00:25 | 33.03371 | -16.51419 | 3000 ft | 104 kts | 204° |
| 2026-05-04 00:25 | 33.02706 | -16.51770 | 2978 ft | 104 kts | 205° |
| 2026-05-04 00:25 | 33.02037 | -16.52143 | 3028 ft | 109 kts | 206° |
| 2026-05-04 00:25 | 33.01314 | -16.52539 | 3023 ft | 118 kts | 206° |
| 2026-05-04 00:26 | 33.00539 | -16.52951 | 3012 ft | 122 kts | 205° |
| 2026-05-04 00:26 | 32.99756 | -16.53376 | 3008 ft | 125 kts | 205° |
| 2026-05-04 00:26 | 32.98974 | -16.53816 | 2985 ft | 128 kts | 205° |
| 2026-05-04 00:26 | 32.98171 | -16.54268 | 2989 ft | 126 kts | 207° |
| 2026-05-04 00:27 | 32.97388 | -16.54749 | 2986 ft | 125 kts | 210° |
| 2026-05-04 00:27 | 32.96625 | -16.55219 | 3012 ft | 120 kts | 208° |
| 2026-05-04 00:27 | 32.95880 | -16.55675 | 3005 ft | 119 kts | 207° |
| 2026-05-04 00:27 | 32.95150 | -16.56113 | 3034 ft | 118 kts | 209° |
| 2026-05-04 00:28 | 32.94419 | -16.56597 | 2991 ft | 121 kts | 209° |
| 2026-05-04 00:28 | 32.93683 | -16.57076 | 3001 ft | 119 kts | 210° |
| 2026-05-04 00:28 | 32.92968 | -16.57582 | 3002 ft | 119 kts | 212° |
| 2026-05-04 00:28 | 32.92256 | -16.58086 | 3017 ft | 119 kts | 210° |
| 2026-05-04 00:29 | 32.91530 | -16.58570 | 2998 ft | 121 kts | 208° |
| 2026-05-04 00:29 | 32.90791 | -16.59036 | 3027 ft | 118 kts | 209° |
| 2026-05-04 00:29 | 32.90096 | -16.59532 | 3046 ft | 116 kts | 211° |
| 2026-05-04 00:29 | 32.89360 | -16.59980 | 3001 ft | 120 kts | 208° |
| 2026-05-04 00:30 | 32.88664 | -16.60500 | 3035 ft | 117 kts | 215° |
| 2026-05-04 00:30 | 32.88004 | -16.61085 | 3008 ft | 121 kts | 219° |
| 2026-05-04 00:30 | 32.87358 | -16.61713 | 3003 ft | 119 kts | 218° |
| 2026-05-04 00:30 | 32.86690 | -16.62312 | 2977 ft | 122 kts | 216° |
| 2026-05-04 00:31 | 32.86008 | -16.62891 | 3002 ft | 119 kts | 216° |
| 2026-05-04 00:31 | 32.85340 | -16.63478 | 3008 ft | 119 kts | 217° |
| 2026-05-04 00:31 | 32.84682 | -16.64037 | 2954 ft | 112 kts | 211° |
| 2026-05-04 00:31 | 32.84043 | -16.64461 | 2850 ft | 99 kts | 207° |
| 2026-05-04 00:32 | 32.83403 | -16.64819 | 2796 ft | 104 kts | 205° |
| 2026-05-04 00:32 | 32.82747 | -16.65172 | 2757 ft | 102 kts | 204° |
| 2026-05-04 00:32 | 32.82101 | -16.65522 | 2710 ft | 102 kts | 206° |
| 2026-05-04 00:32 | 32.81451 | -16.65869 | 2652 ft | 103 kts | 205° |
| 2026-05-04 00:33 | 32.80796 | -16.66217 | 2586 ft | 103 kts | 206° |
| 2026-05-04 00:33 | 32.79487 | -16.66953 | 2437 ft | 104 kts | 210° |
| 2026-05-04 00:33 | 32.78854 | -16.67346 | 2390 ft | 102 kts | 207° |
| 2026-05-04 00:34 | 32.78217 | -16.67724 | 2322 ft | 102 kts | 209° |
| 2026-05-04 00:34 | 32.77584 | -16.68131 | 2229 ft | 104 kts | 214° |
| 2026-05-04 00:34 | 32.77001 | -16.68613 | 2180 ft | 102 kts | 219° |
| 2026-05-04 00:34 | 32.76433 | -16.69135 | 2092 ft | 104 kts | 220° |
| 2026-05-04 00:35 | 32.75857 | -16.69681 | 1936 ft | 109 kts | 219° |
| 2026-05-04 00:35 | 32.75263 | -16.70215 | 1783 ft | 102 kts | 214° |
| 2026-05-04 00:35 | 32.74659 | -16.70614 | 1673 ft | 98 kts | 207° |
| 2026-05-04 00:35 | 32.74046 | -16.70973 | 1577 ft | 95 kts | 210° |
| 2026-05-04 00:36 | 32.73481 | -16.71335 | 1428 ft | 92 kts | 211° |
| 2026-05-04 00:36 | 32.72911 | -16.71672 | 1267 ft | 97 kts | 206° |
| 2026-05-04 00:36 | 32.72282 | -16.72032 | 1183 ft | 101 kts | 210° |
| 2026-05-04 00:36 | 32.71656 | -16.72412 | 1093 ft | 101 kts | 207° |
| 2026-05-04 00:37 | 32.71051 | -16.72812 | 992 ft | 101 kts | 212° |
| 2026-05-04 00:37 | 32.70441 | -16.73236 | 955 ft | 103 kts | 211° |
| 2026-05-04 00:37 | 32.69807 | -16.73659 | 930 ft | 107 kts | 209° |
| 2026-05-04 00:37 | 32.69165 | -16.74096 | 960 ft | 105 kts | 211° |
| 2026-05-04 00:38 | 32.68511 | -16.74522 | 967 ft | 110 kts | 209° |
| 2026-05-04 00:38 | 32.67818 | -16.74946 | 964 ft | 113 kts | 208° |
| 2026-05-04 00:38 | 32.67120 | -16.75372 | 950 ft | 113 kts | 208° |
| 2026-05-04 00:38 | 32.66426 | -16.75809 | 988 ft | 112 kts | 209° |
| 2026-05-04 00:39 | 32.65783 | -16.76343 | 1008 ft | 111 kts | 226° |
| 2026-05-04 00:39 | 32.65411 | -16.77117 | 1019 ft | 112 kts | 256° |
| 2026-05-04 00:39 | 32.65415 | -16.78058 | 900 ft | 115 kts | 280° |
| 2026-05-04 00:39 | 32.65682 | -16.78921 | 999 ft | 107 kts | 295° |
| 2026-05-04 00:40 | 32.66096 | -16.79684 | 965 ft | 117 kts | 307° |
| 2026-05-04 00:40 | 32.66765 | -16.80253 | 867 ft | 122 kts | 356° |
| 2026-05-04 00:40 | 32.67596 | -16.79968 | 570 ft | 133 kts | 28° |
| 2026-05-04 00:40 | 32.68266 | -16.79220 | 315 ft | 134 kts | 43° |
| 2026-05-04 00:41 | 32.68922 | -16.78454 | 175 ft | 132 kts | 43° |
| 2026-05-04 00:41 | 32.69573 | -16.77694 | 178 ft | 130 kts | 43° |
| 2026-05-04 00:41 | 32.70160 | -16.76995 | 574 ft | 86 kts | 50° |
| 2026-05-04 00:41 | 32.70272 | -16.76274 | 588 ft | 98 kts | 113° |
| 2026-05-04 00:42 | 32.69749 | -16.75852 | 826 ft | 94 kts | 185° |
| 2026-05-04 00:42 | 32.69153 | -16.76244 | 937 ft | 103 kts | 221° |
| 2026-05-04 00:42 | 32.68600 | -16.76832 | 987 ft | 107 kts | 221° |
| 2026-05-04 00:42 | 32.68212 | -16.77497 | 881 ft | 97 kts | 265° |
| 2026-05-04 00:43 | 32.68443 | -16.78178 | 427 ft | 88 kts | 313° |
| 2026-05-04 00:43 | 32.68933 | -16.78403 | 186 ft | 77 kts | 25° |
| 2026-05-04 00:43 | 32.69283 | -16.78035 | 157 ft | 50 kts | 42° |
| 2026-05-04 00:43 | 32.69433 | -16.77856 | 160 ft | 25 kts | 44° |
| 2026-05-04 00:44 | 32.69555 | -16.77721 | 165 ft | 24 kts | 43° |
| 2026-05-04 00:44 | 32.69670 | -16.77586 | 170 ft | 21 kts | 46° |
| 2026-05-04 00:44 | 32.69779 | -16.77459 | 171 ft | 25 kts | 45° |
| 2026-05-04 00:44 | 32.69910 | -16.77303 | 174 ft | 26 kts | 44° |
| 2026-05-04 00:45 | 32.69944 | -16.77192 | 173 ft | 11 kts | 150° |
| 2026-05-04 00:45 | 32.69866 | -16.77177 | 171 ft | 12 kts | 180° |
| 2026-05-04 00:45 | 32.69788 | -16.77241 | 167 ft | 16 kts | 226° |
| 2026-05-04 00:45 | 32.69705 | -16.77344 | 161 ft | 18 kts | 225° |
| 2026-05-04 00:46 | 32.69629 | -16.77437 | 168 ft | 13 kts | 227° |
| 2026-05-04 00:46 | 32.69565 | -16.77517 | 168 ft | 15 kts | 228° |
| 2026-05-04 00:46 | 32.69486 | -16.77615 | 167 ft | 18 kts | 226° |
| 2026-05-04 00:46 | 32.69396 | -16.77724 | 163 ft | 19 kts | 227° |
| 2026-05-04 00:47 | 32.69318 | -16.77821 | 163 ft | 5 kts | 221° |
| 2026-05-04 00:47 | 32.69296 | -16.77827 | 164 ft | 0 kts | 163° |
| 2026-05-04 00:47 | 32.69292 | -16.77825 | 164 ft | 3 kts | 146° |
| 2026-05-04 00:47 | 32.69269 | -16.77803 | 167 ft | 5 kts | 138° |
| 2026-05-04 00:48 | 32.69239 | -16.77772 | 168 ft | 6 kts | 144° |
| 2026-05-04 00:48 | 32.69212 | -16.77797 | 168 ft | 6 kts | 268° |
| 2026-05-04 00:48 | 32.69235 | -16.77827 | 168 ft | 2 kts | 317° |
| 2026-05-04 00:48 | 32.69237 | -16.77829 | 168 ft | 0 kts | 317° |